Time;durP1;ratioP1;P1;durP2;ratioP2;P2;SDS_P1;SDS_P2;PMS_P1;PMS_P2;Temp;Humidity;BMP_temperature;BMP_pressure;BME280_temperature;BME280_humidity;BME280_pressure;Samples;Min_cycle;Max_cycle;Signal;HPM_P1;HPM_P2
2023/06/28 00:00:22;;;;;;;7.45;6.78;;;17.50;99.90;;;;;;5024488;28;20045;-64
2023/06/28 00:02:49;;;;;;;9.55;8.63;;;17.50;99.90;;;;;;5022231;28;20073;-63
2023/06/28 00:05:17;;;;;;;7.72;7.03;;;17.50;99.90;;;;;;5021430;28;20050;-64
2023/06/28 00:07:43;;;;;;;7.13;6.43;;;17.50;99.90;;;;;;5024712;28;20099;-65
2023/06/28 00:10:10;;;;;;;6.53;6.03;;;17.50;99.90;;;;;;5020556;28;20037;-63
2023/06/28 00:12:37;;;;;;;7.93;7.13;;;17.40;99.90;;;;;;5018245;28;20060;-63
2023/06/28 00:15:05;;;;;;;6.75;6.03;;;17.40;99.90;;;;;;5021136;28;20095;-64
2023/06/28 00:17:32;;;;;;;8.85;6.95;;;17.40;99.90;;;;;;5016324;28;20056;-68
2023/06/28 00:20:06;;;;;;;8.02;6.70;;;17.40;99.90;;;;;;5024505;28;20430;-63
2023/06/28 00:22:34;;;;;;;6.97;6.35;;;17.30;99.90;;;;;;5024560;28;20049;-68
2023/06/28 00:25:03;;;;;;;7.25;6.63;;;17.30;99.90;;;;;;5024086;28;20048;-67
2023/06/28 00:27:30;;;;;;;7.55;6.95;;;17.30;99.90;;;;;;5020788;28;20164;-66
2023/06/28 00:29:58;;;;;;;7.05;6.38;;;17.30;99.90;;;;;;5022669;28;20049;-65
2023/06/28 00:32:26;;;;;;;8.75;7.95;;;17.20;99.90;;;;;;5025456;28;20048;-66
2023/06/28 00:34:53;;;;;;;7.10;6.50;;;17.20;99.90;;;;;;5026184;28;20041;-67
2023/06/28 00:37:20;;;;;;;8.00;7.22;;;17.20;99.90;;;;;;5019396;28;20077;-64
2023/06/28 00:39:48;;;;;;;10.18;8.27;;;17.20;99.90;;;;;;5023756;28;20515;-66
2023/06/28 00:42:15;;;;;;;6.95;6.35;;;17.10;99.90;;;;;;5021050;28;20056;-65
2023/06/28 00:44:42;;;;;;;9.88;6.38;;;17.10;99.90;;;;;;5025129;28;20053;-65
2023/06/28 00:47:09;;;;;;;8.45;7.50;;;17.10;99.90;;;;;;5027292;28;20586;-64
2023/06/28 00:49:37;;;;;;;10.13;9.02;;;17.10;99.90;;;;;;5022693;28;20152;-64
2023/06/28 00:52:06;;;;;;;8.20;7.38;;;17.00;99.90;;;;;;5026616;28;20042;-64
2023/06/28 00:54:33;;;;;;;7.53;6.70;;;17.00;99.90;;;;;;5025849;28;20041;-69
2023/06/28 00:57:01;;;;;;;8.40;7.30;;;17.00;99.90;;;;;;5021668;28;20600;-64
2023/06/28 00:59:29;;;;;;;9.55;7.47;;;17.10;99.90;;;;;;5024980;28;20052;-63
2023/06/28 01:01:56;;;;;;;7.65;7.00;;;17.00;99.90;;;;;;5039071;28;20050;-64
2023/06/28 01:04:23;;;;;;;8.77;6.82;;;17.00;99.90;;;;;;5025218;28;20049;-65
2023/06/28 01:06:54;;;;;;;10.68;7.50;;;17.00;99.90;;;;;;5026371;28;20106;-63
2023/06/28 01:09:23;;;;;;;7.85;7.05;;;17.00;99.90;;;;;;5023610;28;20049;-63
2023/06/28 01:11:52;;;;;;;8.57;7.00;;;17.00;99.90;;;;;;5016763;28;20127;-66
2023/06/28 01:14:21;;;;;;;7.90;7.13;;;16.90;99.90;;;;;;5024270;28;20042;-67
2023/06/28 01:16:54;;;;;;;7.78;7.07;;;17.00;99.90;;;;;;5023825;28;20054;-64
2023/06/28 01:19:23;;;;;;;8.02;7.32;;;16.90;99.90;;;;;;5022113;28;20068;-66
2023/06/28 01:21:57;;;;;;;6.50;5.68;;;16.90;99.90;;;;;;5027273;28;20037;-63
2023/06/28 01:24:25;;;;;;;7.00;6.20;;;16.90;99.90;;;;;;5022471;28;20041;-67
2023/06/28 01:26:54;;;;;;;8.38;7.50;;;16.80;99.90;;;;;;5021592;28;20045;-65
2023/06/28 01:29:23;;;;;;;7.25;6.57;;;16.80;99.90;;;;;;5037788;28;20055;-64
2023/06/28 01:31:55;;;;;;;6.22;5.63;;;16.80;99.90;;;;;;5025699;28;20047;-66
2023/06/28 01:34:24;;;;;;;7.13;6.53;;;16.80;99.90;;;;;;5022761;28;20419;-65
2023/06/28 01:36:55;;;;;;;6.70;6.05;;;16.80;99.90;;;;;;5023298;28;20436;-63
2023/06/28 01:39:23;;;;;;;9.52;6.75;;;16.80;99.90;;;;;;5017427;28;20103;-64
2023/06/28 01:41:51;;;;;;;7.55;6.72;;;16.80;99.90;;;;;;5022807;28;20045;-64
2023/06/28 01:44:19;;;;;;;7.93;7.13;;;16.90;99.90;;;;;;5019792;28;20613;-63
2023/06/28 01:46:47;;;;;;;10.20;7.90;;;16.90;99.90;;;;;;5024397;28;20037;-64
2023/06/28 01:49:14;;;;;;;7.38;6.70;;;16.80;99.90;;;;;;5026391;28;20132;-65
2023/06/28 01:51:41;;;;;;;8.02;7.32;;;16.80;99.90;;;;;;5020352;28;20037;-66
2023/06/28 01:54:08;;;;;;;8.10;7.45;;;16.80;99.90;;;;;;5024213;28;20501;-64
2023/06/28 01:56:35;;;;;;;8.15;7.35;;;16.80;99.90;;;;;;5020971;28;20053;-65
2023/06/28 01:59:02;;;;;;;12.45;9.45;;;16.80;99.90;;;;;;5023699;28;20085;-66
2023/06/28 02:01:29;;;;;;;8.90;8.00;;;16.80;99.90;;;;;;5023837;28;20077;-63
2023/06/28 02:03:56;;;;;;;9.93;7.28;;;16.80;99.90;;;;;;5041263;28;20053;-64
2023/06/28 02:06:24;;;;;;;9.25;7.45;;;16.80;99.90;;;;;;5025289;28;20126;-65
2023/06/28 02:08:50;;;;;;;7.70;7.10;;;16.80;99.90;;;;;;5023353;28;20060;-64
2023/06/28 02:11:17;;;;;;;10.00;8.35;;;16.80;99.90;;;;;;5020027;28;20395;-66
2023/06/28 02:13:44;;;;;;;9.15;8.30;;;16.80;99.90;;;;;;5019511;28;20454;-66
2023/06/28 02:16:13;;;;;;;7.82;7.03;;;16.80;99.90;;;;;;5024778;28;20037;-63
2023/06/28 02:18:41;;;;;;;9.13;8.23;;;16.80;99.90;;;;;;5020781;28;20054;-65
2023/06/28 02:21:08;;;;;;;9.00;8.30;;;16.80;99.90;;;;;;5020994;28;20574;-69
2023/06/28 02:23:35;;;;;;;9.48;6.97;;;16.80;99.90;;;;;;5022281;28;20489;-65
2023/06/28 02:26:02;;;;;;;7.40;6.80;;;16.80;99.90;;;;;;5020290;28;20724;-66
2023/06/28 02:28:30;;;;;;;9.45;7.95;;;16.80;99.90;;;;;;5021018;28;20065;-68
2023/06/28 02:30:57;;;;;;;8.07;7.38;;;16.80;99.90;;;;;;5021697;28;20364;-64
2023/06/28 02:33:24;;;;;;;9.70;7.38;;;16.80;99.90;;;;;;5024066;28;20451;-65
2023/06/28 02:35:50;;;;;;;8.10;7.38;;;16.80;99.90;;;;;;5024149;28;20107;-65
2023/06/28 02:38:17;;;;;;;8.95;7.95;;;16.80;99.90;;;;;;5019134;28;20056;-64
2023/06/28 02:40:44;;;;;;;9.70;8.07;;;16.80;99.90;;;;;;5010270;28;20443;-64
2023/06/28 02:43:11;;;;;;;9.18;8.35;;;16.80;99.90;;;;;;5023968;28;20056;-67
2023/06/28 02:45:39;;;;;;;9.02;8.23;;;16.90;99.90;;;;;;5036607;28;20058;-64
2023/06/28 02:48:06;;;;;;;10.45;7.95;;;16.90;99.90;;;;;;5019788;28;20065;-64
2023/06/28 02:50:34;;;;;;;9.40;8.60;;;16.90;99.90;;;;;;5023462;28;20647;-64
2023/06/28 02:53:06;;;;;;;8.27;7.28;;;16.90;99.90;;;;;;5016772;28;20048;-63
2023/06/28 02:55:33;;;;;;;9.43;8.32;;;17.00;99.90;;;;;;5018605;28;20049;-67
2023/06/28 02:58:03;;;;;;;11.18;8.73;;;17.00;99.90;;;;;;5019385;28;20583;-64
2023/06/28 03:00:31;;;;;;;9.50;8.45;;;17.10;99.90;;;;;;5022342;28;20137;-63
2023/06/28 03:02:58;;;;;;;8.88;8.15;;;17.10;99.90;;;;;;5024061;28;20065;-65
2023/06/28 03:05:25;;;;;;;8.60;7.80;;;17.20;99.90;;;;;;5021052;28;20042;-63
2023/06/28 03:07:52;;;;;;;7.95;7.35;;;17.20;99.90;;;;;;5039189;28;20476;-64
2023/06/28 03:10:20;;;;;;;8.35;7.55;;;17.30;99.90;;;;;;5020967;28;20045;-64
2023/06/28 03:12:47;;;;;;;11.75;9.13;;;17.30;99.90;;;;;;5035551;28;20399;-65
2023/06/28 03:15:14;;;;;;;7.75;6.90;;;17.30;99.90;;;;;;5021745;28;20048;-65
2023/06/28 03:17:42;;;;;;;8.95;8.10;;;17.40;99.90;;;;;;5036739;28;20073;-64
2023/06/28 03:20:12;;;;;;;10.00;9.05;;;17.40;99.90;;;;;;5021046;28;20076;-67
2023/06/28 03:22:39;;;;;;;9.10;7.88;;;17.40;99.90;;;;;;5020481;28;20100;-64
2023/06/28 03:25:06;;;;;;;11.02;8.20;;;17.50;99.90;;;;;;5021886;28;20037;-65
2023/06/28 03:27:33;;;;;;;7.25;6.25;;;17.50;99.90;;;;;;5021023;28;20037;-66
2023/06/28 03:29:59;;;;;;;8.82;7.00;;;17.60;99.90;;;;;;5024109;28;20053;-64
2023/06/28 03:32:28;;;;;;;10.35;7.28;;;17.60;99.90;;;;;;5036435;28;20049;-63
2023/06/28 03:34:56;;;;;;;7.85;7.13;;;17.60;99.90;;;;;;5022159;28;20068;-64
2023/06/28 03:37:23;;;;;;;7.97;7.18;;;17.60;99.90;;;;;;5037287;28;20044;-65
2023/06/28 03:39:50;;;;;;;8.05;7.35;;;17.70;99.90;;;;;;5021984;28;20547;-66
2023/06/28 03:42:17;;;;;;;6.18;5.38;;;17.80;99.90;;;;;;5003185;28;20664;-64
2023/06/28 03:44:44;;;;;;;7.20;6.55;;;17.80;99.90;;;;;;5036983;28;20046;-63
2023/06/28 03:47:13;;;;;;;7.13;6.43;;;17.80;99.90;;;;;;5019368;28;20148;-64
2023/06/28 03:49:40;;;;;;;7.43;6.43;;;17.90;99.90;;;;;;5022931;28;20467;-63
2023/06/28 03:52:07;;;;;;;6.85;6.25;;;18.00;99.90;;;;;;5019514;28;20049;-64
2023/06/28 03:54:34;;;;;;;6.70;5.85;;;18.00;99.90;;;;;;5024084;28;20041;-64
2023/06/28 03:57:01;;;;;;;6.90;6.22;;;18.10;99.90;;;;;;5023359;28;20503;-64
2023/06/28 03:59:28;;;;;;;6.63;5.57;;;18.10;99.90;;;;;;5025842;28;20052;-67
2023/06/28 04:01:55;;;;;;;10.85;6.95;;;18.20;99.90;;;;;;5027977;28;20065;-65
2023/06/28 04:04:22;;;;;;;6.53;6.00;;;18.30;99.90;;;;;;5022370;28;20042;-65
2023/06/28 04:06:49;;;;;;;7.72;6.43;;;18.30;99.90;;;;;;5026050;28;20045;-64
2023/06/28 04:09:17;;;;;;;6.28;5.68;;;18.30;99.90;;;;;;5018816;28;20049;-64
2023/06/28 04:11:43;;;;;;;7.00;6.43;;;18.30;99.90;;;;;;5027164;28;20049;-64
2023/06/28 04:14:10;;;;;;;8.43;7.63;;;18.40;99.90;;;;;;5023585;28;20087;-67
2023/06/28 04:16:37;;;;;;;7.85;7.15;;;18.40;99.90;;;;;;5028648;28;20041;-64
2023/06/28 04:19:05;;;;;;;6.75;6.25;;;18.50;99.90;;;;;;5021926;28;20049;-66
2023/06/28 04:21:32;;;;;;;7.43;6.20;;;18.50;99.90;;;;;;5026572;28;20042;-65
2023/06/28 04:24:00;;;;;;;7.78;6.43;;;18.60;99.90;;;;;;5021119;28;20945;-63
2023/06/28 04:26:27;;;;;;;8.57;7.15;;;18.60;99.90;;;;;;5025601;28;20203;-65
2023/06/28 04:28:54;;;;;;;7.28;5.30;;;18.70;99.90;;;;;;5024641;28;20041;-63
2023/06/28 04:31:21;;;;;;;8.43;6.22;;;18.70;99.90;;;;;;5025769;28;20056;-64
2023/06/28 04:33:48;;;;;;;6.78;6.07;;;18.80;99.90;;;;;;5023369;28;20068;-64
2023/06/28 04:36:21;;;;;;;10.57;6.85;;;18.90;99.90;;;;;;5025255;28;20067;-65
2023/06/28 04:38:55;;;;;;;6.93;5.75;;;19.00;99.90;;;;;;5023404;28;20050;-65
2023/06/28 04:41:23;;;;;;;9.15;6.75;;;19.00;99.90;;;;;;5023303;28;20099;-64
2023/06/28 04:43:54;;;;;;;8.13;6.97;;;19.10;99.90;;;;;;5023293;28;20048;-66
2023/06/28 04:46:22;;;;;;;6.65;5.70;;;19.10;99.90;;;;;;5022264;28;20095;-65
2023/06/28 04:48:50;;;;;;;6.47;5.95;;;19.20;99.90;;;;;;5021792;28;20049;-64
2023/06/28 04:51:19;;;;;;;7.63;6.90;;;19.20;99.90;;;;;;5025532;28;20046;-63
2023/06/28 04:53:47;;;;;;;6.22;5.63;;;19.30;99.90;;;;;;5020666;28;20498;-66
2023/06/28 05:14:20;;;;;;;7.07;6.22;;;19.70;99.90;;;;;;5013089;28;20223;-65
2023/06/28 05:16:47;;;;;;;5.97;5.32;;;19.80;99.90;;;;;;5017780;28;20120;-68
2023/06/28 05:19:14;;;;;;;6.82;5.97;;;19.90;99.90;;;;;;5017603;28;20858;-64
2023/06/28 05:21:41;;;;;;;5.65;5.15;;;19.90;99.90;;;;;;5020423;28;20099;-64
2023/06/28 05:24:08;;;;;;;7.07;6.22;;;20.00;99.90;;;;;;5021494;28;20103;-64
2023/06/28 05:26:35;;;;;;;9.52;6.10;;;20.00;99.90;;;;;;5020905;28;20037;-64
2023/06/28 05:29:02;;;;;;;7.78;6.47;;;20.10;99.90;;;;;;5025097;28;20075;-65
2023/06/28 05:31:29;;;;;;;5.43;4.93;;;20.10;99.90;;;;;;5024705;28;20054;-65
2023/06/28 05:33:56;;;;;;;5.40;4.90;;;20.10;99.90;;;;;;5020855;28;20053;-63
2023/06/28 05:36:22;;;;;;;5.82;5.25;;;20.20;99.90;;;;;;5020112;28;20042;-65
2023/06/28 05:38:49;;;;;;;6.60;4.93;;;20.20;99.90;;;;;;5023482;28;20087;-67
2023/06/28 05:41:17;;;;;;;5.50;4.90;;;20.20;99.90;;;;;;5021845;28;20088;-65
2023/06/28 05:43:45;;;;;;;5.80;4.70;;;20.20;99.90;;;;;;5021817;28;20045;-64
2023/06/28 05:46:12;;;;;;;8.60;5.38;;;20.30;99.90;;;;;;5021335;28;20639;-66
2023/06/28 05:48:39;;;;;;;7.00;5.53;;;20.30;99.90;;;;;;5021068;28;20052;-63
2023/06/28 05:51:09;;;;;;;9.52;5.57;;;20.40;99.90;;;;;;5021188;28;20135;-69
2023/06/28 05:53:37;;;;;;;;;;;20.40;99.90;;;;;;5022044;28;20502;-66
2023/06/28 05:56:05;;;;;;;5.53;4.93;;;20.40;99.90;;;;;;5021180;28;19933;-63
2023/06/28 05:58:32;;;;;;;6.57;4.95;;;20.40;99.90;;;;;;5024060;28;20702;-64
2023/06/28 06:01:00;;;;;;;5.10;4.63;;;20.50;99.90;;;;;;5021663;28;20119;-68
2023/06/28 06:03:27;;;;;;;5.10;4.60;;;20.50;99.90;;;;;;5022204;28;20702;-64
2023/06/28 06:05:54;;;;;;;4.95;4.55;;;20.50;99.90;;;;;;5024519;28;20143;-63
2023/06/28 06:08:22;;;;;;;5.68;4.97;;;20.60;99.90;;;;;;5024297;28;20842;-64
2023/06/28 06:10:49;;;;;;;8.52;5.30;;;20.60;99.90;;;;;;5024569;28;20060;-63
2023/06/28 06:13:16;;;;;;;5.90;4.75;;;20.60;99.90;;;;;;5025207;28;20128;-65
2023/06/28 06:15:42;;;;;;;5.97;5.38;;;20.60;99.90;;;;;;5020366;28;20051;-65
2023/06/28 06:18:10;;;;;;;5.82;4.95;;;20.70;99.90;;;;;;5023854;28;20468;-64
2023/06/28 06:20:36;;;;;;;5.25;4.40;;;20.70;99.90;;;;;;5021580;28;20041;-65
2023/06/28 06:23:03;;;;;;;5.22;4.53;;;20.70;99.90;;;;;;5023036;28;20158;-65
2023/06/28 06:25:30;;;;;;;7.07;5.15;;;20.70;99.90;;;;;;5022395;28;20051;-67
2023/06/28 06:27:57;;;;;;;7.25;5.63;;;20.70;99.90;;;;;;5026842;28;20162;-65
2023/06/28 06:30:24;;;;;;;5.25;4.30;;;20.80;99.90;;;;;;5019465;28;20059;-68
2023/06/28 06:32:51;;;;;;;7.40;5.05;;;20.80;99.90;;;;;;5024787;28;20115;-63
2023/06/28 06:35:18;;;;;;;6.47;3.85;;;20.90;99.90;;;;;;5023487;28;20507;-64
2023/06/28 06:37:45;;;;;;;5.10;4.43;;;20.80;99.90;;;;;;5024222;28;20037;-65
2023/06/28 06:40:13;;;;;;;6.43;4.55;;;20.80;99.90;;;;;;5021053;28;20069;-66
2023/06/28 06:42:40;;;;;;;6.15;4.03;;;20.80;99.90;;;;;;5022316;28;20756;-66
2023/06/28 06:45:07;;;;;;;5.07;4.68;;;20.80;99.90;;;;;;5019440;28;20443;-65
2023/06/28 06:47:37;;;;;;;7.93;4.65;;;20.80;99.90;;;;;;5021073;28;20490;-64
2023/06/28 06:50:05;;;;;;;4.90;4.03;;;20.80;99.90;;;;;;5020065;28;20141;-66
2023/06/28 06:52:32;;;;;;;4.60;4.25;;;20.80;99.90;;;;;;5018341;28;20042;-64
2023/06/28 06:54:59;;;;;;;4.35;3.85;;;20.80;99.90;;;;;;5023333;28;20045;-64
2023/06/28 06:57:26;;;;;;;4.10;3.80;;;20.80;99.90;;;;;;5022341;28;20053;-65
2023/06/28 06:59:53;;;;;;;4.38;3.97;;;20.80;99.90;;;;;;5019770;28;20631;-65
2023/06/28 07:02:21;;;;;;;5.10;4.50;;;20.90;99.90;;;;;;5021803;28;20136;-63
2023/06/28 07:04:49;;;;;;;4.57;4.03;;;20.90;99.90;;;;;;5022074;28;20037;-65
2023/06/28 07:07:16;;;;;;;5.07;3.92;;;20.90;99.90;;;;;;5019813;28;20160;-64
2023/06/28 07:09:43;;;;;;;6.32;4.15;;;20.80;99.90;;;;;;5021533;28;20069;-64
2023/06/28 07:12:10;;;;;;;5.57;4.03;;;20.80;99.90;;;;;;5023859;28;20491;-65
2023/06/28 07:14:37;;;;;;;5.05;4.55;;;20.90;99.90;;;;;;5021969;28;20103;-65
2023/06/28 07:17:04;;;;;;;7.05;5.10;;;20.90;99.90;;;;;;5021422;28;20068;-65
2023/06/28 07:19:31;;;;;;;6.72;4.57;;;20.90;99.90;;;;;;5021866;28;20034;-64
2023/06/28 07:21:58;;;;;;;5.97;5.35;;;20.90;99.90;;;;;;5022241;28;20113;-65
2023/06/28 07:24:24;;;;;;;4.47;4.07;;;20.90;99.90;;;;;;5023686;28;20888;-65
2023/06/28 07:26:51;;;;;;;4.65;3.78;;;20.90;99.90;;;;;;5019224;28;20408;-64
2023/06/28 07:29:18;;;;;;;10.88;5.20;;;21.00;99.90;;;;;;5022758;28;20052;-64
2023/06/28 07:31:45;;;;;;;4.93;4.28;;;21.00;99.90;;;;;;5022345;28;20104;-66
2023/06/28 07:34:14;;;;;;;5.00;3.90;;;21.10;99.90;;;;;;5023052;28;20045;-66
2023/06/28 07:36:41;;;;;;;6.13;4.55;;;21.10;99.90;;;;;;5021322;28;20030;-66
2023/06/28 07:39:09;;;;;;;7.22;6.00;;;21.10;99.90;;;;;;5021393;28;20033;-63
2023/06/28 07:41:36;;;;;;;5.28;4.57;;;21.10;99.90;;;;;;5019783;28;20764;-65
2023/06/28 07:44:03;;;;;;;6.13;4.60;;;21.10;99.90;;;;;;5022625;28;20084;-64
2023/06/28 07:46:31;;;;;;;7.63;4.90;;;21.10;99.90;;;;;;5021373;28;20664;-65
2023/06/28 07:48:59;;;;;;;5.43;4.88;;;21.10;99.90;;;;;;5022650;28;20068;-64
2023/06/28 07:51:26;;;;;;;6.93;6.20;;;21.10;99.90;;;;;;5019168;28;20095;-66
2023/06/28 07:53:53;;;;;;;5.82;5.10;;;21.00;99.90;;;;;;5020907;28;20041;-64
2023/06/28 07:56:20;;;;;;;4.85;4.45;;;21.00;99.90;;;;;;5019388;28;20049;-64
2023/06/28 07:58:47;;;;;;;7.68;5.00;;;20.90;99.90;;;;;;5024037;28;20065;-64
2023/06/28 08:01:15;;;;;;;5.97;5.38;;;20.90;99.90;;;;;;5019052;28;20043;-64
2023/06/28 08:03:42;;;;;;;5.75;4.95;;;20.80;99.90;;;;;;5021112;28;20038;-63
2023/06/28 08:06:09;;;;;;;7.38;5.43;;;20.80;99.90;;;;;;5019564;28;20280;-66
2023/06/28 08:08:36;;;;;;;6.80;5.65;;;20.70;99.90;;;;;;5023785;28;20128;-63
2023/06/28 08:11:03;;;;;;;5.93;5.43;;;20.70;99.90;;;;;;5020666;28;20044;-64
2023/06/28 08:13:30;;;;;;;7.13;5.93;;;20.80;99.90;;;;;;5022016;28;20053;-66
2023/06/28 08:15:57;;;;;;;7.35;5.20;;;20.90;99.90;;;;;;5020334;28;20129;-62
2023/06/28 08:18:24;;;;;;;6.47;5.88;;;21.00;99.90;;;;;;5020447;28;20041;-65
2023/06/28 08:20:51;;;;;;;6.65;5.43;;;21.10;99.90;;;;;;5021237;28;20041;-63
2023/06/28 08:23:18;;;;;;;7.05;6.25;;;21.10;99.90;;;;;;5020621;28;20668;-64
2023/06/28 08:25:45;;;;;;;5.60;4.95;;;21.10;99.90;;;;;;5023727;28;20129;-66
2023/06/28 08:28:12;;;;;;;5.82;5.32;;;20.90;99.90;;;;;;5022044;28;20045;-66
2023/06/28 08:30:39;;;;;;;8.40;6.75;;;20.90;99.90;;;;;;5018230;28;20053;-65
2023/06/28 08:33:06;;;;;;;6.28;5.15;;;20.90;99.90;;;;;;5019184;28;20072;-64
2023/06/28 08:35:33;;;;;;;7.88;4.60;;;21.00;99.90;;;;;;5021790;28;20041;-63
2023/06/28 08:38:00;;;;;;;9.85;6.03;;;21.10;99.90;;;;;;5018719;28;20164;-64
2023/06/28 08:40:29;;;;;;;6.30;5.70;;;21.30;99.90;;;;;;5021545;28;20159;-63
2023/06/28 08:43:03;;;;;;;6.55;5.10;;;21.30;99.90;;;;;;5025991;28;20111;-64
2023/06/28 08:45:33;;;;;;;5.38;4.88;;;21.40;99.90;;;;;;5018024;28;20049;-63
2023/06/28 08:48:01;;;;;;;;;;;21.40;99.90;;;;;;5022476;28;20037;-70
2023/06/28 08:50:46;;;;;;;10.73;5.70;;;21.50;99.90;;;;;;5026609;28;19929;-65
2023/06/28 08:53:19;;;;;;;7.18;5.97;;;21.50;99.90;;;;;;5024561;28;20046;-64
2023/06/28 08:55:47;;;;;;;6.40;5.80;;;21.30;99.90;;;;;;5025958;28;20052;-63
2023/06/28 08:58:15;;;;;;;7.05;5.60;;;21.30;99.90;;;;;;5025607;28;20080;-65
2023/06/28 09:00:44;;;;;;;6.85;5.40;;;21.30;99.90;;;;;;5024458;28;20073;-62
2023/06/28 09:03:14;;;;;;;5.80;5.20;;;21.40;99.90;;;;;;5021552;28;20392;-63
2023/06/28 09:05:44;;;;;;;7.60;6.50;;;21.40;99.90;;;;;;5022266;28;20207;-62
2023/06/28 09:08:12;;;;;;;8.75;6.65;;;21.50;99.90;;;;;;5026333;28;20041;-64
2023/06/28 09:10:39;;;;;;;7.57;6.38;;;21.50;99.90;;;;;;5024958;28;20122;-64
2023/06/28 09:13:07;;;;;;;7.80;7.07;;;21.50;99.90;;;;;;5022754;28;20128;-64
2023/06/28 09:15:35;;;;;;;9.35;6.47;;;21.30;99.90;;;;;;5021231;28;20127;-66
2023/06/28 09:18:02;;;;;;;7.20;6.50;;;21.10;99.90;;;;;;5024571;28;20621;-64
2023/06/28 09:20:30;;;;;;;6.97;6.40;;;20.90;99.90;;;;;;5023943;28;20049;-65
2023/06/28 09:23:00;;;;;;;6.78;6.07;;;20.80;99.90;;;;;;5021639;28;21044;-65
2023/06/28 09:25:31;;;;;;;8.85;6.30;;;20.70;99.90;;;;;;5025928;28;20784;-64
2023/06/28 09:27:59;;;;;;;7.05;6.35;;;20.70;99.90;;;;;;5023326;28;20132;-67
2023/06/28 09:30:50;;;;;;;8.32;7.43;;;20.70;99.90;;;;;;5024100;28;20110;-62
2023/06/28 09:33:18;;;;;;;8.07;7.18;;;20.60;99.90;;;;;;5021956;28;20057;-64
2023/06/28 09:35:45;;;;;;;8.52;7.78;;;20.60;99.90;;;;;;5023660;28;20041;-63
2023/06/28 09:38:12;;;;;;;8.15;7.35;;;20.60;99.90;;;;;;5019763;28;20160;-63
2023/06/28 09:40:39;;;;;;;7.82;7.03;;;20.60;99.90;;;;;;5023934;28;20855;-65
2023/06/28 09:43:13;;;;;;;8.85;7.22;;;20.60;99.90;;;;;;5022623;28;20172;-63
2023/06/28 09:45:40;;;;;;;8.73;7.95;;;20.50;99.90;;;;;;5022171;28;20099;-66
2023/06/28 09:48:08;;;;;;;9.05;8.10;;;20.50;99.90;;;;;;5023148;28;20501;-64
2023/06/28 09:50:39;;;;;;;9.68;7.90;;;20.40;99.90;;;;;;5020185;28;20054;-64
2023/06/28 09:53:19;;;;;;;9.73;7.55;;;20.40;99.90;;;;;;5023104;28;20064;-64
2023/06/28 09:55:47;;;;;;;8.70;8.00;;;20.50;99.90;;;;;;5020898;28;20045;-62
2023/06/28 09:58:17;;;;;;;10.48;9.40;;;20.50;99.90;;;;;;5020115;28;20077;-64
2023/06/28 10:00:46;;;;;;;11.80;8.50;;;20.50;99.90;;;;;;5023599;28;20400;-64
2023/06/28 10:03:15;;;;;;;10.83;8.90;;;20.50;99.90;;;;;;5018843;28;20403;-63
2023/06/28 10:05:56;;;;;;;8.82;7.00;;;20.50;99.90;;;;;;5023176;28;20041;-63
2023/06/28 14:47:59;;;;;;;5.88;4.85;;;23.90;99.90;;;;;;5024285;28;20160;-84
2023/06/28 14:50:26;;;;;;;6.32;5.75;;;23.80;99.90;;;;;;5025038;28;20053;-86
2023/06/28 14:52:53;;;;;;;5.10;4.63;;;23.90;99.90;;;;;;5028460;28;20049;-89
2023/06/28 14:55:20;;;;;;;6.22;4.45;;;23.80;99.90;;;;;;5025186;28;20113;-85
2023/06/28 14:57:47;;;;;;;5.65;5.15;;;24.20;99.90;;;;;;5029838;28;20049;-85
2023/06/28 15:00:14;;;;;;;5.45;4.95;;;24.20;99.90;;;;;;5028544;28;20494;-85
2023/06/28 15:02:41;;;;;;;4.63;4.22;;;24.30;99.90;;;;;;5026117;28;20045;-87
2023/06/28 15:05:08;;;;;;;7.22;6.63;;;24.60;99.90;;;;;;5025202;28;20387;-86
2023/06/28 15:07:35;;;;;;;5.88;5.38;;;25.00;99.90;;;;;;5025476;28;20367;-85
2023/06/28 15:10:04;;;;;;;5.72;5.22;;;24.70;99.90;;;;;;5027187;28;20049;-83
2023/06/28 15:12:31;;;;;;;5.30;4.90;;;24.60;99.90;;;;;;5031092;28;20049;-86
2023/06/28 15:14:58;;;;;;;4.97;4.57;;;24.30;99.90;;;;;;5028754;28;20046;-85
2023/06/28 15:17:25;;;;;;;4.57;4.15;;;24.30;99.90;;;;;;5029541;28;20052;-84
2023/06/28 15:19:52;;;;;;;6.05;5.35;;;24.20;99.90;;;;;;5028919;28;20037;-86
2023/06/28 15:22:19;;;;;;;5.85;4.70;;;24.40;99.90;;;;;;5026302;28;20107;-85
2023/06/28 15:24:46;;;;;;;4.75;4.35;;;24.40;99.90;;;;;;5022501;28;20477;-86
2023/06/28 15:27:13;;;;;;;4.65;4.25;;;24.80;99.90;;;;;;5024091;28;20065;-87
2023/06/28 15:29:40;;;;;;;6.40;4.32;;;24.80;99.90;;;;;;5022020;28;20061;-87
2023/06/28 15:32:07;;;;;;;4.95;4.55;;;25.20;99.90;;;;;;5023687;28;20495;-85
2023/06/28 15:34:34;;;;;;;5.57;5.07;;;25.10;99.90;;;;;;5023708;28;20057;-87
2023/06/28 15:37:01;;;;;;;5.28;4.55;;;24.90;99.90;;;;;;5021955;28;20458;-87
2023/06/28 15:39:28;;;;;;;5.35;4.60;;;24.80;99.90;;;;;;5022800;28;20046;-86
2023/06/28 15:41:55;;;;;;;5.10;4.40;;;24.90;99.90;;;;;;5024791;28;20447;-84
2023/06/28 15:44:22;;;;;;;4.53;4.13;;;25.20;99.90;;;;;;5011719;28;20068;-86
2023/06/28 15:46:49;;;;;;;4.85;4.45;;;25.20;99.90;;;;;;5017302;28;20060;-84
2023/06/28 15:49:18;;;;;;;5.03;4.63;;;25.40;99.90;;;;;;5021006;28;20053;-86
2023/06/28 15:51:45;;;;;;;6.38;4.45;;;25.30;99.90;;;;;;5022417;28;20050;-86
2023/06/28 15:54:11;;;;;;;5.65;5.15;;;25.40;99.90;;;;;;5023806;28;20075;-85
2023/06/28 15:56:38;;;;;;;9.35;6.47;;;25.30;99.90;;;;;;5024405;28;20037;-86
2023/06/28 15:59:05;;;;;;;5.00;4.53;;;25.60;99.90;;;;;;5008699;28;20130;-89
2023/06/28 16:01:32;;;;;;;4.70;4.30;;;26.20;99.90;;;;;;5026173;28;20041;-89
2023/06/28 16:04:00;;;;;;;5.07;4.32;;;26.70;99.90;;;;;;5022516;28;20436;-86
2023/06/28 16:06:27;;;;;;;12.35;6.80;;;27.10;99.90;;;;;;5022717;28;20124;-88
2023/06/28 16:08:54;;;;;;;5.13;3.88;;;27.60;99.90;;;;;;5025724;28;20067;-89
2023/06/28 16:11:21;;;;;;;5.13;4.63;;;27.70;99.90;;;;;;5026927;28;20049;-86
2023/06/28 16:13:48;;;;;;;3.80;3.50;;;27.60;99.90;;;;;;5026301;28;20056;-87
2023/06/28 16:16:18;;;;;;;4.60;3.55;;;27.80;99.90;;;;;;5025072;28;20042;-87
2023/06/28 16:18:45;;;;;;;4.40;4.05;;;27.40;99.90;;;;;;5026510;28;20556;-84
2023/06/28 16:21:11;;;;;;;4.18;3.88;;;27.50;99.90;;;;;;5025184;28;20056;-86
2023/06/28 16:23:39;;;;;;;5.97;4.10;;;27.10;99.90;;;;;;5004706;28;20042;-91
2023/06/28 16:26:09;;;;;;;5.00;4.60;;;27.30;99.90;;;;;;5018426;28;20051;-89
2023/06/28 16:28:47;;;;;;;4.35;4.05;;;27.70;99.90;;;;;;5025537;28;20140;-87
2023/06/28 16:31:16;;;;;;;;;;;28.10;99.90;;;;;;5019613;28;20068;-89
2023/06/28 16:33:43;;;;;;;5.97;3.72;;;28.00;99.90;;;;;;5017605;28;19929;-87
2023/06/28 16:36:15;;;;;;;4.90;4.05;;;27.70;99.90;;;;;;5021840;28;20068;-88
2023/06/28 16:38:42;;;;;;;8.00;3.90;;;27.70;99.90;;;;;;5027423;28;20045;-89
2023/06/28 16:41:09;;;;;;;7.15;4.63;;;27.70;99.90;;;;;;5023313;28;20053;-85
2023/06/28 16:43:36;;;;;;;4.47;4.00;;;27.70;99.90;;;;;;5019371;28;20272;-87
2023/06/28 16:46:03;;;;;;;3.67;3.33;;;27.70;99.90;;;;;;5014420;28;20053;-88
2023/06/28 16:48:31;;;;;;;4.45;4.05;;;27.30;99.10;;;;;;5020313;28;20108;-87
2023/06/28 16:50:58;;;;;;;5.13;3.30;;;27.20;99.90;;;;;;5025000;28;20049;-89
2023/06/28 16:53:25;;;;;;;3.53;3.22;;;27.50;99.90;;;;;;5026249;28;21049;-87
2023/06/28 16:55:52;;;;;;;3.90;3.60;;;27.50;99.90;;;;;;5025343;28;20049;-87
2023/06/28 16:58:19;;;;;;;3.78;3.47;;;28.10;99.70;;;;;;5025223;28;20049;-89
2023/06/28 17:00:46;;;;;;;3.75;3.33;;;28.20;99.50;;;;;;5025708;28;20398;-86
2023/06/28 17:03:16;;;;;;;4.80;4.40;;;28.40;99.90;;;;;;5025030;28;20049;-89
2023/06/28 17:05:44;;;;;;;3.75;3.45;;;28.60;99.00;;;;;;5022189;28;20095;-88
2023/06/28 17:08:18;;;;;;;5.63;4.00;;;28.80;99.60;;;;;;5024506;28;20037;-87
2023/06/28 17:10:48;;;;;;;3.85;3.50;;;28.70;99.90;;;;;;5029680;28;20049;-90
2023/06/28 17:13:15;;;;;;;4.07;3.75;;;29.10;99.10;;;;;;5023791;28;20041;-90
2023/06/28 17:15:42;;;;;;;4.70;4.30;;;29.10;99.80;;;;;;5028386;28;20045;-87
2023/06/28 17:18:09;;;;;;;3.78;3.35;;;29.00;99.90;;;;;;5027731;28;20048;-88
2023/06/28 17:20:36;;;;;;;4.15;3.85;;;28.60;99.40;;;;;;5027634;28;20057;-90
2023/06/28 17:23:03;;;;;;;5.30;4.80;;;28.50;99.90;;;;;;5023175;28;20406;-87
2023/06/28 17:25:31;;;;;;;4.43;4.03;;;28.30;99.90;;;;;;5009594;28;20042;-87
2023/06/28 17:27:58;;;;;;;3.92;3.63;;;28.20;99.90;;;;;;5035145;28;20045;-89
2023/06/28 17:30:31;;;;;;;4.55;3.95;;;28.00;99.90;;;;;;5039975;28;20043;-91
2023/06/28 17:33:01;;;;;;;4.28;3.83;;;28.00;99.90;;;;;;5031186;28;20061;-90
2023/06/28 17:35:28;;;;;;;;;;;27.70;99.90;;;;;;5052193;28;20425;-88
2023/06/28 17:37:55;;;;;;;4.63;4.22;;;27.80;99.90;;;;;;5022683;28;20336;-89
2023/06/28 17:40:22;;;;;;;4.13;3.60;;;28.40;99.90;;;;;;5003349;28;20147;-89
2023/06/28 17:42:48;;;;;;;4.72;4.35;;;27.80;99.90;;;;;;5040938;28;20044;-89
2023/06/28 17:45:15;;;;;;;4.13;3.75;;;28.20;99.80;;;;;;5036504;28;20419;-89
2023/06/28 17:47:42;;;;;;;3.67;3.38;;;27.90;99.90;;;;;;5028070;28;20879;-90